createdAt,value
2023-01-18T00:01:53.051Z,36.50
2023-01-18T00:04:26.187Z,26.33
2023-01-18T00:06:59.514Z,41.37
2023-01-18T00:09:32.805Z,36.33
2023-01-18T00:12:06.221Z,48.13
2023-01-18T00:14:39.645Z,39.33
2023-01-18T00:17:13.137Z,43.02
2023-01-18T00:19:46.377Z,33.73
2023-01-18T00:22:19.717Z,33.75
2023-01-18T00:24:52.910Z,26.27
2023-01-18T00:27:26.437Z,37.23
2023-01-18T00:30:00.210Z,45.98
2023-01-18T00:32:34.773Z,40.05
2023-01-18T00:35:09.410Z,32.25
2023-01-18T00:37:42.789Z,34.48
2023-01-18T00:40:17.039Z,38.85
2023-01-18T00:43:07.848Z,28.80
2023-01-18T00:45:41.982Z,44.63
2023-01-18T00:48:15.082Z,35.23
2023-01-18T00:50:48.223Z,33.28
2023-01-18T00:53:21.363Z,30.12
2023-01-18T00:55:54.546Z,34.27
2023-01-18T00:58:28.429Z,40.60
2023-01-18T01:01:02.385Z,37.17
2023-01-18T01:03:54.945Z,30.60
2023-01-18T01:06:46.624Z,31.27
2023-01-18T01:09:22.310Z,35.38
2023-01-18T01:15:08.529Z,34.73
2023-01-18T01:17:59.575Z,36.03
2023-01-18T01:20:50.416Z,29.00
2023-01-18T01:23:42.633Z,30.72
2023-01-18T01:26:15.829Z,40.65
2023-01-18T01:28:52.978Z,31.50
2023-01-18T01:31:26.396Z,36.90
2023-01-18T01:33:59.814Z,33.13
2023-01-18T01:36:35.113Z,34.73
2023-01-18T01:39:10.196Z,27.82
2023-01-18T01:41:43.639Z,26.77
2023-01-18T01:44:45.559Z,29.67
2023-01-18T01:47:28.017Z,24.85
2023-01-18T01:50:04.751Z,31.37
2023-01-18T01:52:41.096Z,36.10
2023-01-18T01:55:21.262Z,32.15
2023-01-18T01:57:58.041Z,29.10
2023-01-18T02:00:32.092Z,27.35
2023-01-18T02:03:07.656Z,34.73
2023-01-18T02:05:44.263Z,29.02
2023-01-18T02:08:20.309Z,28.02
2023-01-18T02:10:54.257Z,32.33
2023-01-18T02:13:28.997Z,34.98
2023-01-18T02:16:05.813Z,27.60
2023-01-18T02:18:42.105Z,24.40
2023-01-18T02:21:20.637Z,28.75
2023-01-18T02:24:39.373Z,23.00
2023-01-18T02:27:19.176Z,28.30
2023-01-18T02:30:05.185Z,25.85
2023-01-18T02:32:57.517Z,26.42
2023-01-18T02:35:37.704Z,22.67
2023-01-18T02:38:13.840Z,22.25
2023-01-18T02:41:06.192Z,24.40
2023-01-18T02:44:00.268Z,26.93
2023-01-18T02:46:35.059Z,31.52
2023-01-18T02:49:11.668Z,34.23
2023-01-18T02:51:45.200Z,31.25
2023-01-18T02:54:20.904Z,26.80
2023-01-18T02:56:56.353Z,28.77
2023-01-18T02:59:32.885Z,27.22
2023-01-18T03:02:09.604Z,25.43
2023-01-18T03:04:47.491Z,26.05
2023-01-18T03:07:23.726Z,26.40
2023-01-18T03:09:58.210Z,27.25
2023-01-18T03:12:35.313Z,26.35
2023-01-18T03:15:13.159Z,29.52
2023-01-18T03:17:49.665Z,36.68
2023-01-18T03:20:26.320Z,32.70
2023-01-18T03:23:19.639Z,39.48
2023-01-18T03:25:55.722Z,34.10
2023-01-18T03:28:49.301Z,34.18
2023-01-18T03:31:43.555Z,31.80
2023-01-18T03:34:20.116Z,29.07
2023-01-18T03:36:55.165Z,38.70
2023-01-18T03:39:31.792Z,36.45
2023-01-18T03:42:08.226Z,27.55
2023-01-18T03:44:44.653Z,34.03
2023-01-18T03:47:18.238Z,29.25
2023-01-18T03:49:51.730Z,27.35
2023-01-18T03:52:27.389Z,29.40
2023-01-18T03:55:04.241Z,32.60
2023-01-18T03:57:40.940Z,33.10
2023-01-18T04:00:16.544Z,29.32
2023-01-18T04:02:51.406Z,31.48
2023-01-18T04:05:25.379Z,33.25
2023-01-18T04:07:58.877Z,23.35
2023-01-18T04:10:32.348Z,36.63
2023-01-18T04:13:05.456Z,30.52
2023-01-18T04:15:39.417Z,30.27
2023-01-18T04:18:12.981Z,30.88
2023-01-18T04:20:47.385Z,26.50
2023-01-18T04:23:21.029Z,26.60
2023-01-18T04:25:54.406Z,36.58
2023-01-18T04:28:28.208Z,35.38
2023-01-18T04:31:01.685Z,27.75
2023-01-18T04:33:36.936Z,25.35
2023-01-18T04:36:11.223Z,30.00
2023-01-18T04:38:44.346Z,27.55
2023-01-18T04:41:17.856Z,25.12
2023-01-18T04:43:51.306Z,22.50
2023-01-18T04:46:24.558Z,31.02
2023-01-18T04:48:58.125Z,26.07
2023-01-18T04:51:31.615Z,27.42
2023-01-18T04:54:04.802Z,26.65
2023-01-18T04:56:37.992Z,30.10
2023-01-18T04:59:14.721Z,29.52
2023-01-18T05:01:48.785Z,31.93
2023-01-18T05:04:22.506Z,30.57
2023-01-18T05:06:55.770Z,29.27
2023-01-18T05:09:28.962Z,27.35
2023-01-18T05:12:02.379Z,20.57
2023-01-18T05:14:35.640Z,30.35
2023-01-18T05:17:08.784Z,24.60
2023-01-18T05:19:42.015Z,26.20
2023-01-18T05:22:15.413Z,23.60
2023-01-18T05:24:48.671Z,27.85
2023-01-18T05:27:22.786Z,25.43
2023-01-18T05:29:56.002Z,32.83
2023-01-18T05:32:29.159Z,27.15
2023-01-18T05:35:02.387Z,28.23
2023-01-18T05:37:36.044Z,21.50
2023-01-18T05:40:12.977Z,32.42
2023-01-18T05:42:46.353Z,25.35
2023-01-18T05:45:20.180Z,29.10
2023-01-18T05:47:54.752Z,31.30
2023-01-18T05:50:27.981Z,24.23
2023-01-18T05:53:01.899Z,31.60
2023-01-18T05:55:35.603Z,29.30
2023-01-18T05:58:09.116Z,32.15
2023-01-18T06:00:42.547Z,24.63
2023-01-18T06:03:16.024Z,27.80
2023-01-18T06:05:51.578Z,20.48
2023-01-18T06:08:25.198Z,35.28
2023-01-18T06:10:59.973Z,20.62
2023-01-18T06:13:34.297Z,19.37
2023-01-18T06:16:09.244Z,22.80
2023-01-18T06:18:42.833Z,25.72
2023-01-18T06:21:18.077Z,22.32
2023-01-18T06:23:51.498Z,28.90
2023-01-18T06:26:24.974Z,34.27
2023-01-18T06:28:58.543Z,27.32
2023-01-18T06:31:32.068Z,30.72
2023-01-18T06:34:07.402Z,31.68
2023-01-18T06:36:40.830Z,31.12
2023-01-18T06:39:14.429Z,28.15
2023-01-18T06:41:50.382Z,32.53
2023-01-18T06:44:27.433Z,30.02
2023-01-18T06:47:02.031Z,25.32
2023-01-18T06:49:35.884Z,25.57
2023-01-18T06:52:09.610Z,26.45
2023-01-18T06:54:45.154Z,26.73
2023-01-18T06:57:18.657Z,31.23
2023-01-18T06:59:53.401Z,40.00
2023-01-18T07:02:26.686Z,31.20
2023-01-18T07:05:00.055Z,34.65
2023-01-18T07:07:35.000Z,32.98
2023-01-18T07:10:10.781Z,34.43
2023-01-18T07:12:45.922Z,33.45
2023-01-18T07:15:28.455Z,24.32
2023-01-18T07:18:05.069Z,28.83
2023-01-18T07:20:38.609Z,32.20
2023-01-18T07:23:12.125Z,26.97
2023-01-18T07:25:45.683Z,30.85
2023-01-18T07:28:19.067Z,24.92
2023-01-18T07:30:52.927Z,24.23
2023-01-18T07:33:26.855Z,34.03
2023-01-18T07:36:01.684Z,33.60
2023-01-18T07:38:36.126Z,29.72
2023-01-18T07:41:11.858Z,23.85
2023-01-18T07:43:45.633Z,26.60
2023-01-18T07:46:20.976Z,27.58
2023-01-18T07:48:54.781Z,35.80
2023-01-18T07:51:28.409Z,26.12
2023-01-18T07:54:01.875Z,30.95
2023-01-18T07:56:34.987Z,34.08
2023-01-18T07:59:08.851Z,30.40
2023-01-18T08:01:42.481Z,21.20
2023-01-18T08:04:16.570Z,29.40
2023-01-18T08:06:49.891Z,22.00
2023-01-18T08:09:23.424Z,29.63
2023-01-18T08:11:56.745Z,25.57
2023-01-18T08:14:30.285Z,21.97
2023-01-18T08:17:03.851Z,20.30
2023-01-18T08:19:37.335Z,26.40
2023-01-18T08:22:10.925Z,25.02
2023-01-18T08:24:44.406Z,21.12
2023-01-18T08:27:17.803Z,26.45
2023-01-18T08:29:51.265Z,24.63
2023-01-18T08:32:25.603Z,25.72
2023-01-18T08:34:59.128Z,27.35
2023-01-18T08:37:32.903Z,26.23
2023-01-18T08:40:07.052Z,30.10
2023-01-18T08:42:40.611Z,25.45
2023-01-18T08:45:14.601Z,30.00
2023-01-18T08:47:49.258Z,28.05
2023-01-18T08:50:23.316Z,28.62
2023-01-18T08:52:59.120Z,24.00
2023-01-18T08:55:34.957Z,32.35
2023-01-18T08:58:08.688Z,30.00
2023-01-18T09:00:42.316Z,30.10
2023-01-18T09:03:15.973Z,30.00
2023-01-18T09:05:49.611Z,18.60
2023-01-18T09:08:23.027Z,34.43
2023-01-18T09:10:56.680Z,24.82
2023-01-18T09:13:30.137Z,20.70
2023-01-18T09:16:05.814Z,29.60
2023-01-18T09:18:39.939Z,30.00
2023-01-18T09:21:16.611Z,26.00
2023-01-18T09:23:51.670Z,31.87
2023-01-18T09:26:25.281Z,23.02
2023-01-18T09:28:58.921Z,29.98
2023-01-18T09:31:32.753Z,24.10
2023-01-18T09:34:18.831Z,28.05
2023-01-18T09:36:42.429Z,28.17
2023-01-18T09:39:16.035Z,27.62
2023-01-18T09:41:55.284Z,34.08
2023-01-18T09:44:31.859Z,27.55
2023-01-18T09:47:08.569Z,33.10
2023-01-18T09:49:46.573Z,28.65
2023-01-18T09:52:29.004Z,25.35
2023-01-18T09:55:07.627Z,36.42
2023-01-18T09:57:50.553Z,39.53
2023-01-18T10:00:26.220Z,27.73
2023-01-18T10:03:02.618Z,37.98
2023-01-18T10:05:38.943Z,31.30
2023-01-18T10:08:16.267Z,36.58
2023-01-18T10:10:53.506Z,35.25
2023-01-18T10:16:28.184Z,26.17
2023-01-18T10:19:02.494Z,40.67
2023-01-18T10:21:45.270Z,24.45
2023-01-18T10:24:35.823Z,38.70
2023-01-18T10:27:38.599Z,29.30
2023-01-18T10:30:30.333Z,23.90
2023-01-18T10:33:07.426Z,24.72
2023-01-18T10:35:45.464Z,27.57
2023-01-18T10:38:22.128Z,32.42
2023-01-18T10:40:59.110Z,21.85
2023-01-18T10:43:33.470Z,30.65
2023-01-18T10:46:14.461Z,28.05
2023-01-18T10:48:50.246Z,29.10
2023-01-18T10:54:29.429Z,22.45
2023-01-18T10:57:09.181Z,28.95
2023-01-18T10:59:43.035Z,22.95
2023-01-18T11:02:24.940Z,23.32
2023-01-18T11:05:01.727Z,32.10
2023-01-18T11:07:35.413Z,23.25
2023-01-18T11:10:14.980Z,28.52
2023-01-18T11:12:50.324Z,32.05
2023-01-18T11:15:32.295Z,25.48
2023-01-18T11:18:13.257Z,19.42
2023-01-18T11:20:50.745Z,23.32
2023-01-18T11:23:27.054Z,21.42
2023-01-18T11:26:04.375Z,24.50
2023-01-18T11:28:41.313Z,22.65
2023-01-18T11:31:18.200Z,24.47
2023-01-18T11:33:55.030Z,25.23
2023-01-18T11:36:40.590Z,25.08
2023-01-18T11:39:31.481Z,29.92
2023-01-18T11:42:18.568Z,25.88
2023-01-18T11:45:01.510Z,28.47
2023-01-18T11:47:40.431Z,29.18
2023-01-18T11:50:22.376Z,25.02
2023-01-18T11:53:01.012Z,22.85
2023-01-18T11:55:38.185Z,24.15
2023-01-18T11:58:17.049Z,28.57
2023-01-18T12:00:55.638Z,31.90
2023-01-18T12:03:41.453Z,33.00
2023-01-18T12:06:18.115Z,32.42
2023-01-18T12:09:12.295Z,26.82
2023-01-18T12:12:13.507Z,21.52
2023-01-18T12:14:43.935Z,37.33
2023-01-18T12:17:30.853Z,31.95
2023-01-18T12:20:17.978Z,25.57
2023-01-18T12:23:12.290Z,26.23
2023-01-18T12:29:08.652Z,24.98
2023-01-18T12:31:50.560Z,21.30
2023-01-18T12:34:26.930Z,27.13
2023-01-18T12:37:16.710Z,27.48
2023-01-18T12:40:11.170Z,21.82
2023-01-18T12:42:50.872Z,34.50
2023-01-18T12:45:30.820Z,28.80
2023-01-18T12:48:11.118Z,36.15
2023-01-18T12:50:47.467Z,27.17
2023-01-18T12:53:24.847Z,21.60
2023-01-18T12:55:59.713Z,21.35
2023-01-18T12:58:35.161Z,23.67
2023-01-18T13:01:11.925Z,31.23
2023-01-18T13:03:47.922Z,21.85
2023-01-18T13:06:22.210Z,30.08
2023-01-18T13:09:00.483Z,21.60
2023-01-18T13:11:36.660Z,19.40
2023-01-18T13:14:12.895Z,25.30
2023-01-18T13:16:49.457Z,22.65
2023-01-18T13:19:26.031Z,22.25
2023-01-18T13:22:08.479Z,22.32
2023-01-18T13:24:55.219Z,19.82
2023-01-18T13:27:30.426Z,21.13
2023-01-18T13:30:19.526Z,21.52
2023-01-18T13:32:53.705Z,18.07
2023-01-18T13:35:32.688Z,17.25
2023-01-18T13:38:12.864Z,18.57
2023-01-18T13:40:49.112Z,20.62
2023-01-18T13:43:35.262Z,18.23
2023-01-18T13:46:22.165Z,20.43
2023-01-18T13:48:57.536Z,20.95
2023-01-18T13:51:56.800Z,20.25
2023-01-18T13:55:05.683Z,21.52
2023-01-18T13:57:39.098Z,24.65
2023-01-18T14:00:26.143Z,18.23
2023-01-18T14:03:08.162Z,19.60
2023-01-18T14:05:45.146Z,14.20
2023-01-18T14:08:26.257Z,16.32
2023-01-18T14:11:05.035Z,20.27
2023-01-18T14:14:04.901Z,15.30
2023-01-18T14:16:41.154Z,16.52
2023-01-18T14:19:20.150Z,18.00
2023-01-18T14:22:03.875Z,15.05
2023-01-18T14:24:48.147Z,20.62
2023-01-18T14:27:25.093Z,21.77
2023-01-18T14:30:01.726Z,19.67
2023-01-18T14:32:38.906Z,19.82
2023-01-18T14:35:25.455Z,17.07
2023-01-18T14:38:19.139Z,19.02
2023-01-18T14:40:45.984Z,20.68
2023-01-18T14:43:22.497Z,20.05
2023-01-18T14:46:00.405Z,14.55
2023-01-18T14:51:08.702Z,19.20
2023-01-18T14:53:45.546Z,16.87
2023-01-18T14:56:22.105Z,16.32
2023-01-18T14:58:57.522Z,20.08
2023-01-18T15:01:33.993Z,15.70
2023-01-18T15:04:10.164Z,18.32
2023-01-18T15:06:46.418Z,19.07
2023-01-18T15:09:22.952Z,15.53
2023-01-18T15:11:59.569Z,17.85
2023-01-18T15:14:36.023Z,19.32
2023-01-18T15:17:11.727Z,18.02
2023-01-18T15:19:47.848Z,18.05
2023-01-18T15:22:24.537Z,20.02
2023-01-18T15:25:00.552Z,14.55
2023-01-18T15:27:35.488Z,16.45
2023-01-18T15:30:16.835Z,18.32
2023-01-18T15:32:52.469Z,15.85
2023-01-18T15:35:26.894Z,16.97
2023-01-18T15:38:02.256Z,20.62
2023-01-18T15:40:35.945Z,16.30
2023-01-18T15:43:12.497Z,18.32
2023-01-18T15:45:49.719Z,14.47
2023-01-18T15:48:25.514Z,17.37
2023-01-18T15:51:08.327Z,17.15
2023-01-18T15:53:48.370Z,17.92
2023-01-18T15:56:25.182Z,16.20
2023-01-18T15:59:01.895Z,17.75
2023-01-18T16:01:36.315Z,18.87
2023-01-18T16:04:23.132Z,16.02
2023-01-18T16:06:58.637Z,15.63
2023-01-18T16:09:33.599Z,16.85
2023-01-18T16:12:08.082Z,16.25
2023-01-18T16:14:43.664Z,18.40
2023-01-18T16:17:19.565Z,15.38
2023-01-18T16:19:55.405Z,18.35
2023-01-18T16:22:30.279Z,15.70
2023-01-18T16:25:06.055Z,17.82
2023-01-18T16:27:49.264Z,25.95
2023-01-18T16:30:25.369Z,17.70
2023-01-18T16:33:10.043Z,15.13
2023-01-18T16:35:43.275Z,18.15
2023-01-18T16:38:18.916Z,16.12
2023-01-18T16:40:53.344Z,18.17
2023-01-18T16:43:29.673Z,31.27
2023-01-18T16:46:04.674Z,14.47
2023-01-18T16:48:38.316Z,13.90
2023-01-18T16:51:20.575Z,11.40
2023-01-18T16:53:54.153Z,17.60
2023-01-18T16:56:27.313Z,19.52
2023-01-18T16:59:00.763Z,18.02
2023-01-18T17:01:34.829Z,22.48
2023-01-18T17:04:10.720Z,18.02
2023-01-18T17:06:45.209Z,20.62
2023-01-18T17:09:24.236Z,14.87
2023-01-18T17:11:57.942Z,16.27
2023-01-18T17:14:34.414Z,17.65
2023-01-18T17:17:10.518Z,17.85
2023-01-18T17:19:44.283Z,20.60
2023-01-18T17:22:17.743Z,16.23
2023-01-18T17:24:52.845Z,19.50
2023-01-18T17:27:26.211Z,19.92
2023-01-18T17:30:01.095Z,19.82
2023-01-18T17:32:34.867Z,19.70
2023-01-18T17:35:10.197Z,20.10
2023-01-18T17:37:43.607Z,16.42
2023-01-18T17:40:27.337Z,18.73
2023-01-18T17:42:54.419Z,22.67
2023-01-18T17:45:28.186Z,28.75
2023-01-18T17:48:01.697Z,21.48
2023-01-18T17:50:37.106Z,20.82
2023-01-18T17:53:10.990Z,24.87
2023-01-18T17:55:44.441Z,24.57
2023-01-18T17:58:18.201Z,23.42
2023-01-18T18:00:52.315Z,26.55
2023-01-18T18:03:27.599Z,23.67
2023-01-18T18:06:02.500Z,28.55
2023-01-18T18:08:36.652Z,27.32
2023-01-18T18:11:11.284Z,20.48
2023-01-18T18:13:45.123Z,20.05
2023-01-18T18:16:19.399Z,24.07
2023-01-18T18:18:53.412Z,27.58
2023-01-18T18:21:27.474Z,22.27
2023-01-18T18:24:01.184Z,26.75
2023-01-18T18:26:34.784Z,24.98
2023-01-18T18:29:09.057Z,33.65
2023-01-18T18:31:44.048Z,20.32
2023-01-18T18:34:17.502Z,25.52
2023-01-18T18:36:51.044Z,24.77
2023-01-18T18:39:24.938Z,23.60
2023-01-18T18:41:58.917Z,24.77
2023-01-18T18:44:32.649Z,26.00
2023-01-18T18:47:07.548Z,31.95
2023-01-18T18:49:41.467Z,24.72
2023-01-18T18:52:15.058Z,25.37
2023-01-18T18:54:48.515Z,28.47
2023-01-18T18:57:23.349Z,23.52
2023-01-18T18:59:56.728Z,22.70
2023-01-18T19:02:30.855Z,29.25
2023-01-18T19:05:04.518Z,24.65
2023-01-18T19:07:38.075Z,32.83
2023-01-18T19:10:14.828Z,30.97
2023-01-18T19:12:48.330Z,22.05
2023-01-18T19:15:21.721Z,26.97
2023-01-18T19:17:55.551Z,20.68
2023-01-18T19:20:29.564Z,26.35
2023-01-18T19:23:03.586Z,35.78
2023-01-18T19:25:38.795Z,28.20
2023-01-18T19:28:15.354Z,30.48
2023-01-18T19:30:49.139Z,30.23
2023-01-18T19:33:22.646Z,26.77
2023-01-18T19:36:01.636Z,31.42
2023-01-18T19:38:38.732Z,27.55
2023-01-18T19:41:10.852Z,32.67
2023-01-18T19:43:44.729Z,20.72
2023-01-18T19:46:20.432Z,22.17
2023-01-18T19:49:00.451Z,27.05
2023-01-18T19:51:36.494Z,28.00
2023-01-18T19:54:12.647Z,22.45
2023-01-18T19:56:47.066Z,29.20
2023-01-18T19:59:20.646Z,33.40
2023-01-18T20:01:55.141Z,29.87
2023-01-18T20:04:31.402Z,29.23
2023-01-18T20:07:04.885Z,26.87
2023-01-18T20:09:43.353Z,32.93
2023-01-18T20:12:14.055Z,24.25
2023-01-18T20:14:47.539Z,34.35
2023-01-18T20:17:21.306Z,27.90
2023-01-18T20:19:54.950Z,30.68
2023-01-18T20:22:28.842Z,29.32
2023-01-18T20:25:02.564Z,31.62
2023-01-18T20:27:35.917Z,35.70
2023-01-18T20:30:14.668Z,36.25
2023-01-18T20:32:47.985Z,29.95
2023-01-18T20:35:21.545Z,37.23
2023-01-18T20:37:55.342Z,41.77
2023-01-18T20:40:28.747Z,45.10
2023-01-18T20:43:02.815Z,39.45
2023-01-18T20:45:36.035Z,32.05
2023-01-18T20:48:10.017Z,32.70
2023-01-18T20:50:43.509Z,35.20
2023-01-18T20:53:17.011Z,42.35
2023-01-18T20:55:50.056Z,36.60
2023-01-18T20:58:26.176Z,36.08
2023-01-18T21:01:01.134Z,37.50
2023-01-18T21:03:34.591Z,46.63
2023-01-18T21:06:09.719Z,49.27
2023-01-18T21:08:43.234Z,36.20
2023-01-18T21:11:17.682Z,32.98
2023-01-18T21:13:51.296Z,49.73
2023-01-18T21:16:25.714Z,32.30
2023-01-18T21:18:59.681Z,35.60
2023-01-18T21:21:33.189Z,37.42
2023-01-18T21:24:07.970Z,36.95
2023-01-18T21:26:41.453Z,40.70
2023-01-18T21:29:15.162Z,42.83
2023-01-18T21:31:50.413Z,36.10
2023-01-18T21:34:24.238Z,33.53
2023-01-18T21:36:57.686Z,36.25
2023-01-18T21:39:31.031Z,37.58
2023-01-18T21:42:22.189Z,26.70
2023-01-18T21:45:13.047Z,39.50
2023-01-18T21:47:46.460Z,32.53
2023-01-18T21:50:37.692Z,39.78
2023-01-18T21:53:33.228Z,41.18
2023-01-18T21:56:07.247Z,40.95
2023-01-18T21:58:57.786Z,32.98
2023-01-18T22:01:34.455Z,33.02
2023-01-18T22:04:26.897Z,25.40
2023-01-18T22:07:03.558Z,32.80
2023-01-18T22:09:38.606Z,37.98
2023-01-18T22:12:12.019Z,30.35
2023-01-18T22:14:45.680Z,34.63
2023-01-18T22:17:19.750Z,27.35
2023-01-18T22:19:53.338Z,34.48
2023-01-18T22:22:27.094Z,36.60
2023-01-18T22:25:02.455Z,28.83
2023-01-18T22:27:35.797Z,32.98
2023-01-18T22:30:12.139Z,32.98
2023-01-18T22:32:45.752Z,38.70
2023-01-18T22:35:19.154Z,29.05
2023-01-18T22:37:52.635Z,37.75
2023-01-18T22:40:26.197Z,42.90
2023-01-18T22:42:59.737Z,39.88
2023-01-18T22:45:33.314Z,26.57
2023-01-18T22:48:07.535Z,31.10
2023-01-18T22:50:40.978Z,27.32
2023-01-18T22:53:14.439Z,30.77
2023-01-18T22:55:47.814Z,35.95
2023-01-18T22:58:21.316Z,33.95
2023-01-18T23:00:54.841Z,26.65
2023-01-18T23:03:29.801Z,30.65
2023-01-18T23:06:03.999Z,31.55
2023-01-18T23:08:40.995Z,30.35
2023-01-18T23:11:16.811Z,35.90
2023-01-18T23:14:10.654Z,35.85
2023-01-18T23:17:02.535Z,30.27
2023-01-18T23:19:37.515Z,31.05
2023-01-18T23:22:11.423Z,30.75
2023-01-18T23:24:45.075Z,23.83
2023-01-18T23:27:18.733Z,28.67
2023-01-18T23:29:54.053Z,32.20
2023-01-18T23:32:30.053Z,23.20
2023-01-18T23:35:03.842Z,26.80
2023-01-18T23:37:37.141Z,26.93
2023-01-18T23:40:31.137Z,18.37
2023-01-18T23:43:22.014Z,26.25
2023-01-18T23:46:12.991Z,21.12
2023-01-18T23:49:03.542Z,26.20
2023-01-18T23:51:54.290Z,27.27
2023-01-18T23:54:27.753Z,26.93
2023-01-18T23:57:01.146Z,31.27
2023-01-18T23:59:34.863Z,21.60
